createdAt,value
2017-07-04T00:00:16.128Z,79.3
2017-07-04T00:00:37.630Z,79.4
2017-07-04T00:00:58.493Z,79.4
2017-07-04T00:01:19.487Z,80
2017-07-04T00:01:39.846Z,79.9
2017-07-04T00:02:00.944Z,79.5
2017-07-04T00:02:22.675Z,79.4
2017-07-04T00:02:42.989Z,79.1
2017-07-04T00:03:03.596Z,79.3
2017-07-04T00:03:24.631Z,79.3
2017-07-04T00:03:44.672Z,79.3
2017-07-04T00:04:05.036Z,79.3
2017-07-04T00:04:25.306Z,79.3
2017-07-04T00:04:45.600Z,79.7
2017-07-04T00:05:05.862Z,79.4
2017-07-04T00:05:26.125Z,79.9
2017-07-04T00:05:47.063Z,79.5
2017-07-04T00:06:09.153Z,79.4
2017-07-04T00:06:30.100Z,79.6
2017-07-04T00:06:51.104Z,79.9
2017-07-04T00:07:12.217Z,79.2
2017-07-04T00:07:32.972Z,78.6
2017-07-04T00:07:53.242Z,79
2017-07-04T00:08:13.572Z,78.5
2017-07-04T00:08:33.843Z,78.5
2017-07-04T00:08:54.204Z,78.4
2017-07-04T00:09:14.521Z,78.4
2017-07-04T00:09:34.800Z,78.4
2017-07-04T00:09:55.103Z,78.7
2017-07-04T00:10:15.437Z,78.7
2017-07-04T00:10:35.785Z,79
2017-07-04T00:10:56.087Z,78.9
2017-07-04T00:11:17.105Z,79.5
2017-07-04T00:11:37.467Z,79.3
2017-07-04T00:11:57.759Z,79.9
2017-07-04T00:12:18.068Z,79.5
2017-07-04T00:12:39.066Z,79.6
2017-07-04T00:12:59.395Z,80
2017-07-04T00:13:20.160Z,80.5
2017-07-04T00:13:40.427Z,80.5
2017-07-04T00:14:00.731Z,80.5
2017-07-04T00:14:21.003Z,80.7
2017-07-04T00:14:41.362Z,80.6
2017-07-04T00:15:03.109Z,80.5
2017-07-04T00:15:23.380Z,80.9
2017-07-04T00:15:43.659Z,80.5
2017-07-04T00:16:03.917Z,80.4
2017-07-04T00:16:25.049Z,80.8
2017-07-04T00:16:45.355Z,80.6
2017-07-04T00:17:07.166Z,81
2017-07-04T00:17:27.529Z,81
2017-07-04T00:17:48.178Z,81.4
2017-07-04T00:18:09.442Z,81.4
2017-07-04T00:18:29.712Z,81.3
2017-07-04T00:18:50.015Z,81.2
2017-07-04T00:19:10.374Z,80.5
2017-07-04T00:19:30.719Z,81.4
2017-07-04T00:19:50.979Z,81.8
2017-07-04T00:20:12.684Z,81.9
2017-07-04T00:20:33.037Z,82
2017-07-04T00:20:53.411Z,82.2
2017-07-04T00:21:14.571Z,81.8
2017-07-04T00:21:34.857Z,82
2017-07-04T00:21:56.161Z,81.7
2017-07-04T00:22:16.443Z,81.9
2017-07-04T00:22:37.501Z,82.5
2017-07-04T00:22:58.670Z,82.5
2017-07-04T00:23:18.919Z,82.5
2017-07-04T00:23:53.792Z,82.5
2017-07-04T00:24:14.114Z,82.6
2017-07-04T00:24:34.428Z,82.5
2017-07-04T00:24:54.697Z,81.9
2017-07-04T00:25:15.595Z,81.9
2017-07-04T00:25:37.157Z,82.2
2017-07-04T00:25:58.676Z,82.7
2017-07-04T00:26:19.635Z,82.9
2017-07-04T00:26:40.033Z,82.8
2017-07-04T00:27:00.463Z,82.9
2017-07-04T00:27:21.616Z,82.8
2017-07-04T00:27:41.977Z,82.7
2017-07-04T00:28:03.151Z,82.8
2017-07-04T00:28:24.114Z,83.1
2017-07-04T00:28:45.176Z,82.1
2017-07-04T00:29:05.158Z,82
2017-07-04T00:29:25.509Z,82.2
2017-07-04T00:29:45.822Z,82.8
2017-07-04T00:30:06.095Z,83.6
2017-07-04T00:30:27.123Z,83.6
2017-07-04T00:30:48.119Z,82.9
2017-07-04T00:31:08.450Z,83.1
2017-07-04T00:31:28.803Z,83
2017-07-04T00:31:49.108Z,82.6
2017-07-04T00:32:09.374Z,82.8
2017-07-04T00:32:29.680Z,82.6
2017-07-04T00:32:50.008Z,82.2
2017-07-04T00:33:10.317Z,82.4
2017-07-04T00:33:30.585Z,82.4
2017-07-04T00:33:51.532Z,82.4
2017-07-04T00:34:12.590Z,82.8
2017-07-04T00:34:32.888Z,82.9
2017-07-04T00:34:53.196Z,82.8
2017-07-04T00:35:13.508Z,82.7
2017-07-04T00:35:34.535Z,82.9
2017-07-04T00:35:54.862Z,82.9
2017-07-04T00:36:15.167Z,82.8
2017-07-04T00:36:35.468Z,82.7
2017-07-04T00:36:56.267Z,82.8
2017-07-04T00:37:17.522Z,82.8
2017-07-04T00:37:37.842Z,82.7
2017-07-04T00:37:59.175Z,82.8
2017-07-04T00:38:20.140Z,83.5
2017-07-04T00:38:41.164Z,83.3
2017-07-04T00:39:01.429Z,81.9
2017-07-04T00:39:21.743Z,81.6
2017-07-04T00:39:42.061Z,80.1
2017-07-04T00:40:03.570Z,80
2017-07-04T00:40:24.606Z,80.3
2017-07-04T00:40:44.898Z,80.5
2017-07-04T00:41:05.259Z,80.7
2017-07-04T00:41:25.577Z,81.2
2017-07-04T00:41:45.846Z,80.6
2017-07-04T00:42:06.235Z,80.6
2017-07-04T00:42:26.584Z,80.5
2017-07-04T00:42:47.501Z,80.6
2017-07-04T00:43:07.841Z,80.6
2017-07-04T00:43:27.877Z,80.6
2017-07-04T00:43:48.341Z,80.5
2017-07-04T00:44:08.583Z,79.9
2017-07-04T00:44:29.632Z,79.6
2017-07-04T00:44:50.709Z,79.6
2017-07-04T00:45:10.787Z,80.1
2017-07-04T00:45:33.040Z,80
2017-07-04T00:45:53.356Z,80.2
2017-07-04T00:46:13.625Z,80
2017-07-04T00:46:34.631Z,79.4
2017-07-04T00:46:54.908Z,79.3
2017-07-04T00:47:15.264Z,80
2017-07-04T00:47:36.496Z,78.8
2017-07-04T00:47:56.808Z,78.8
2017-07-04T00:48:17.172Z,78.9
2017-07-04T00:48:37.468Z,78.2
2017-07-04T00:48:57.725Z,78.1
2017-07-04T00:49:18.053Z,77.6
2017-07-04T00:49:38.363Z,78.5
2017-07-04T00:49:58.396Z,77.5
2017-07-04T00:50:18.679Z,77.7
2017-07-04T00:50:39.637Z,77.6
2017-07-04T00:50:59.989Z,77
2017-07-04T00:51:21.085Z,77
2017-07-04T00:51:42.249Z,77.3
2017-07-04T00:52:02.536Z,76.9
2017-07-04T00:52:22.900Z,76.7
2017-07-04T00:52:43.173Z,76
2017-07-04T00:53:03.837Z,75.8
2017-07-04T00:53:24.679Z,75.2
2017-07-04T00:53:45.043Z,75.1
2017-07-04T00:54:05.440Z,75.7
2017-07-04T00:54:25.730Z,75.7
2017-07-04T00:54:46.073Z,74.6
2017-07-04T00:55:06.342Z,75.5
2017-07-04T00:55:26.665Z,75.3
2017-07-04T00:55:46.970Z,74.8
2017-07-04T00:56:07.290Z,74.9
2017-07-04T00:56:28.069Z,75
2017-07-04T00:56:48.328Z,74.8
2017-07-04T00:57:08.733Z,75.2
2017-07-04T00:57:29.004Z,75.1
2017-07-04T00:57:49.305Z,74.8
2017-07-04T00:58:09.619Z,74.7
2017-07-04T00:58:29.949Z,74.6
2017-07-04T00:58:51.023Z,74.5
2017-07-04T00:59:11.345Z,74.8
2017-07-04T00:59:32.497Z,73.9
2017-07-04T00:59:52.767Z,74.3
2017-07-04T01:00:13.638Z,74.9
2017-07-04T01:00:34.704Z,75.6
2017-07-04T01:00:54.984Z,76.5
2017-07-04T01:01:16.694Z,75.6
2017-07-04T01:01:37.643Z,76.5
2017-07-04T01:01:57.919Z,76.8
2017-07-04T01:02:18.193Z,76.9
2017-07-04T01:02:39.568Z,77.6
2017-07-04T01:02:59.878Z,77.5
2017-07-04T01:03:20.145Z,78
2017-07-04T01:03:40.461Z,78
2017-07-04T01:04:00.778Z,78.4
2017-07-04T01:04:21.042Z,79.2
2017-07-04T01:04:41.358Z,79
2017-07-04T01:05:01.677Z,79.2
2017-07-04T01:05:22.677Z,80.2
2017-07-04T01:05:43.011Z,81.6
2017-07-04T01:06:03.371Z,81.6
2017-07-04T01:06:43.338Z,80.7
2017-07-04T01:07:03.803Z,81.4
2017-07-04T01:07:24.678Z,81.7
2017-07-04T01:07:45.742Z,82.5
2017-07-04T01:08:06.052Z,82.4
2017-07-04T01:08:27.083Z,83.2
2017-07-04T01:08:47.485Z,83.8
2017-07-04T01:09:07.872Z,83.2
2017-07-04T01:09:29.002Z,83.6
2017-07-04T01:09:50.741Z,84
2017-07-04T01:10:11.575Z,84.1
2017-07-04T01:10:32.668Z,83.9
2017-07-04T01:10:53.041Z,84.3
2017-07-04T01:11:13.508Z,84.1
2017-07-04T01:11:33.970Z,85.2
2017-07-04T01:11:54.393Z,85.6
2017-07-04T01:12:15.732Z,83.8
2017-07-04T01:12:38.145Z,82.9
2017-07-04T01:12:58.593Z,83.5
2017-07-04T01:13:18.967Z,84.9
2017-07-04T01:13:39.284Z,85.8
2017-07-04T01:13:59.588Z,85.5
2017-07-04T01:14:20.671Z,85.3
2017-07-04T01:14:40.944Z,85.4
2017-07-04T01:15:01.346Z,84.3
2017-07-04T01:15:22.163Z,84.5
2017-07-04T01:15:42.582Z,85.4
2017-07-04T01:16:03.034Z,85.4
2017-07-04T01:16:24.132Z,85.8
2017-07-04T01:16:45.691Z,85.4
2017-07-04T01:17:05.993Z,84.9
2017-07-04T01:17:27.152Z,85
2017-07-04T01:17:47.525Z,85.8
2017-07-04T01:18:08.850Z,86
2017-07-04T01:18:29.124Z,85.6
2017-07-04T01:18:49.515Z,85.5
2017-07-04T01:19:09.855Z,85.7
2017-07-04T01:19:30.137Z,85.5
2017-07-04T01:19:50.420Z,85.1
2017-07-04T01:20:10.744Z,85.2
2017-07-04T01:20:31.093Z,85.2
2017-07-04T01:20:51.453Z,86
2017-07-04T01:21:12.720Z,86.2
2017-07-04T01:21:33.117Z,85.5
2017-07-04T01:21:53.481Z,85.9
2017-07-04T01:22:14.681Z,85.6
2017-07-04T01:22:35.707Z,85.7
2017-07-04T01:22:56.123Z,85.4
2017-07-04T01:23:16.444Z,85.8
2017-07-04T01:23:36.701Z,86.1
2017-07-04T01:23:56.985Z,86.3
2017-07-04T01:24:18.228Z,87.1
2017-07-04T01:24:39.607Z,86.4
2017-07-04T01:25:00.652Z,86.5
2017-07-04T01:25:21.101Z,86.3
2017-07-04T01:25:41.433Z,86.5
2017-07-04T01:26:01.787Z,86.4
2017-07-04T01:26:22.658Z,87.5
2017-07-04T01:26:43.672Z,86.1
2017-07-04T01:27:03.748Z,86.8
2017-07-04T01:27:24.078Z,87.6
2017-07-04T01:27:45.102Z,87.5
2017-07-04T01:28:05.429Z,86.5
2017-07-04T01:28:25.746Z,86.3
2017-07-04T01:28:47.703Z,87
2017-07-04T01:29:07.753Z,86.4
2017-07-04T01:29:28.083Z,85.8
2017-07-04T01:29:48.530Z,86.3
2017-07-04T01:30:08.914Z,86.6
2017-07-04T01:30:29.220Z,86.2
2017-07-04T01:30:49.279Z,86.3
2017-07-04T01:31:09.632Z,87.6
2017-07-04T01:31:30.040Z,87.3
2017-07-04T01:31:51.221Z,87
2017-07-04T01:32:11.488Z,86.5
2017-07-04T01:32:31.849Z,86.2
2017-07-04T01:32:52.209Z,86.1
2017-07-04T01:33:13.560Z,85.7
2017-07-04T01:33:33.865Z,86.4
2017-07-04T01:33:54.187Z,86.2
2017-07-04T01:34:15.655Z,86.9
2017-07-04T01:34:35.926Z,86.6
2017-07-04T01:34:57.169Z,86.2
2017-07-04T01:35:18.135Z,87
2017-07-04T01:35:38.254Z,87.1
2017-07-04T01:35:58.566Z,87.4
2017-07-04T01:36:18.894Z,86.9
2017-07-04T01:36:39.176Z,86.6
2017-07-04T01:36:59.445Z,87.3
2017-07-04T01:37:19.772Z,87.4
2017-07-04T01:37:40.093Z,87.9
2017-07-04T01:38:01.220Z,88.1
2017-07-04T01:38:21.509Z,88
2017-07-04T01:38:41.792Z,87.4
2017-07-04T01:39:02.148Z,86.6
2017-07-04T01:39:22.453Z,86.2
2017-07-04T01:39:44.178Z,87
2017-07-04T01:40:04.460Z,87.4
2017-07-04T01:40:24.782Z,87.4
2017-07-04T01:40:45.149Z,87.4
2017-07-04T01:41:05.433Z,86.3
2017-07-04T01:41:25.785Z,86.1
2017-07-04T01:41:46.166Z,86.3
2017-07-04T01:42:06.443Z,86.5
2017-07-04T01:42:26.709Z,87
2017-07-04T01:42:47.013Z,86.4
2017-07-04T01:43:07.333Z,86
2017-07-04T01:43:27.336Z,86
2017-07-04T01:43:47.644Z,85.8
2017-07-04T01:44:08.727Z,85.7
2017-07-04T01:44:29.049Z,86.1
2017-07-04T01:44:49.405Z,86.2
2017-07-04T01:45:10.636Z,86.9
2017-07-04T01:45:30.967Z,86.3
2017-07-04T01:45:52.020Z,86.2
2017-07-04T01:46:12.374Z,86.8
2017-07-04T01:46:33.739Z,86.9
2017-07-04T01:46:54.174Z,87.1
2017-07-04T01:47:14.494Z,87
2017-07-04T01:47:34.858Z,86.6
2017-07-04T01:47:55.228Z,87.1
2017-07-04T01:48:15.504Z,86.8
2017-07-04T01:48:35.812Z,86.2
2017-07-04T01:48:55.837Z,86.9
2017-07-04T01:49:16.737Z,86.7
2017-07-04T01:49:37.034Z,86.3
2017-07-04T01:49:58.364Z,87.3
2017-07-04T01:50:19.175Z,87.3
2017-07-04T01:50:39.648Z,87.4
2017-07-04T01:50:59.969Z,87.3
2017-07-04T01:51:20.390Z,86.6
2017-07-04T01:51:40.720Z,86.7
2017-07-04T01:52:01.715Z,86.5
2017-07-04T01:52:22.084Z,86.5
2017-07-04T01:52:42.172Z,86.2
2017-07-04T01:53:02.443Z,86.7
2017-07-04T01:53:22.754Z,87.1
2017-07-04T01:53:43.032Z,87.3
2017-07-04T01:54:04.182Z,86.2
2017-07-04T01:54:25.235Z,86.7
2017-07-04T01:54:46.219Z,86.2
2017-07-04T01:55:06.622Z,86.2
2017-07-04T01:55:27.568Z,86.2
2017-07-04T01:55:48.608Z,86.2
2017-07-04T01:56:10.233Z,86.9
2017-07-04T01:56:30.605Z,86.7
2017-07-04T01:56:51.018Z,86.9
2017-07-04T01:57:12.122Z,87.1
2017-07-04T01:57:32.786Z,86.5
2017-07-04T01:57:53.425Z,86.4
2017-07-04T01:58:13.824Z,85.9
2017-07-04T01:58:34.683Z,85.6
2017-07-04T01:58:56.067Z,85.7
2017-07-04T01:59:16.450Z,86
2017-07-04T01:59:37.571Z,86.3
2017-07-04T01:59:57.953Z,85.8
2017-07-04T02:00:18.274Z,85.9
2017-07-04T02:00:39.696Z,86.3
2017-07-04T02:01:00.003Z,86.4
2017-07-04T02:01:22.101Z,86
2017-07-04T02:01:42.427Z,86.3
2017-07-04T02:02:02.735Z,86.6
2017-07-04T02:02:23.060Z,87.1
2017-07-04T02:02:43.380Z,86.8
2017-07-04T02:03:04.586Z,86.9
2017-07-04T02:03:24.912Z,86.6
2017-07-04T02:03:45.242Z,87.3
2017-07-04T02:04:05.510Z,87.1
2017-07-04T02:04:25.771Z,87
2017-07-04T02:04:46.161Z,86.8
2017-07-04T02:05:07.694Z,87.3
2017-07-04T02:05:28.004Z,87.6
2017-07-04T02:05:48.345Z,87.6
2017-07-04T02:06:08.651Z,87.7
2017-07-04T02:06:28.980Z,87.3
2017-07-04T02:06:49.253Z,87.2
2017-07-04T02:07:09.521Z,87.4
2017-07-04T02:07:29.854Z,87.7
2017-07-04T02:07:50.182Z,87.7
2017-07-04T02:08:10.264Z,88
2017-07-04T02:08:31.251Z,87.7
2017-07-04T02:08:51.311Z,88
2017-07-04T02:09:11.675Z,87.9
2017-07-04T02:09:31.994Z,87.9
2017-07-04T02:09:52.263Z,88.6
2017-07-04T02:10:13.191Z,88.8
2017-07-04T02:10:34.153Z,88.1
2017-07-04T02:10:54.421Z,88.3
2017-07-04T02:11:14.735Z,87.9
2017-07-04T02:11:35.047Z,87.9
2017-07-04T02:11:55.402Z,88.5
2017-07-04T02:12:15.756Z,87.7
2017-07-04T02:12:36.065Z,87.9
2017-07-04T02:12:56.327Z,87.3
2017-07-04T02:13:16.632Z,87.2
2017-07-04T02:13:37.003Z,87.4
2017-07-04T02:13:57.366Z,87.7
2017-07-04T02:14:17.676Z,88
2017-07-04T02:14:37.959Z,88.1
2017-07-04T02:14:58.227Z,88
2017-07-04T02:15:18.536Z,87.7
2017-07-04T02:15:38.842Z,87.5
2017-07-04T02:15:59.228Z,87.3
2017-07-04T02:16:19.545Z,86.9
2017-07-04T02:16:39.979Z,87
2017-07-04T02:17:02.243Z,87.2
2017-07-04T02:17:22.545Z,87.7
2017-07-04T02:17:42.901Z,88.1
2017-07-04T02:18:03.208Z,87.8
2017-07-04T02:18:23.549Z,88
2017-07-04T02:18:43.892Z,87.8
2017-07-04T02:19:04.219Z,87.8
2017-07-04T02:19:24.501Z,88.6
2017-07-04T02:19:44.809Z,89
2017-07-04T02:20:05.128Z,88.8
2017-07-04T02:20:25.441Z,89.2
2017-07-04T02:20:46.705Z,89
2017-07-04T02:21:07.007Z,88.1
2017-07-04T02:21:27.282Z,88
2017-07-04T02:21:47.665Z,88.2
2017-07-04T02:22:08.020Z,87.9
2017-07-04T02:22:29.728Z,87.8
2017-07-04T02:22:50.747Z,87.6
2017-07-04T02:23:11.109Z,88.5
2017-07-04T02:23:32.265Z,88.8
2017-07-04T02:23:52.563Z,88.9
2017-07-04T02:24:12.263Z,88.5
2017-07-04T02:24:32.635Z,88
2017-07-04T02:24:52.899Z,88.1
2017-07-04T02:25:13.170Z,88.3
2017-07-04T02:25:33.520Z,87.7
2017-07-04T02:25:54.747Z,88.1
2017-07-04T02:26:15.053Z,88.6
2017-07-04T02:26:37.544Z,89.6
2017-07-04T02:26:57.864Z,89.9
2017-07-04T02:27:18.165Z,89.6
2017-07-04T02:27:38.461Z,89.4
2017-07-04T02:27:58.767Z,89.3
2017-07-04T02:28:19.071Z,89.5
2017-07-04T02:28:39.434Z,89.4
2017-07-04T02:28:59.697Z,88.8
2017-07-04T02:29:20.076Z,89
2017-07-04T02:29:40.390Z,88.9
2017-07-04T02:30:00.669Z,88.8
2017-07-04T02:30:21.685Z,89.6
2017-07-04T02:30:41.963Z,89.1
2017-07-04T02:31:02.363Z,88.9
2017-07-04T02:31:22.681Z,89
2017-07-04T02:31:43.001Z,89
2017-07-04T02:32:03.318Z,89.2
2017-07-04T02:32:23.580Z,88.7
2017-07-04T02:32:43.850Z,88.8
2017-07-04T02:33:04.134Z,89.1
2017-07-04T02:33:25.207Z,88.8
2017-07-04T02:33:45.549Z,89.7
2017-07-04T02:34:05.947Z,89.9
2017-07-04T02:34:26.236Z,90.2
2017-07-04T02:34:46.550Z,89.9
2017-07-04T02:35:07.617Z,89.3
2017-07-04T02:35:27.922Z,89
2017-07-04T02:35:48.324Z,88.8
2017-07-04T02:36:08.698Z,88.7
2017-07-04T02:36:29.022Z,88.6
2017-07-04T02:36:49.632Z,89.2
2017-07-04T02:37:09.707Z,88.9
2017-07-04T02:37:30.096Z,89.1
2017-07-04T02:37:50.372Z,88.8
2017-07-04T02:38:11.209Z,89
2017-07-04T02:38:31.554Z,88.6
2017-07-04T02:38:51.832Z,88.8
2017-07-04T02:39:12.145Z,88.9
2017-07-04T02:39:32.455Z,88.5
2017-07-04T02:39:53.607Z,88.5
2017-07-04T02:40:13.874Z,89.1
2017-07-04T02:40:34.187Z,89.6
2017-07-04T02:40:54.497Z,89.4
2017-07-04T02:41:15.700Z,90
2017-07-04T02:41:35.999Z,88.8
2017-07-04T02:41:56.334Z,88.9
2017-07-04T02:42:16.691Z,89
2017-07-04T02:42:37.023Z,88.9
2017-07-04T02:42:57.363Z,89.4
2017-07-04T02:43:17.681Z,89.3
2017-07-04T02:43:38.106Z,89.7
2017-07-04T02:43:58.413Z,88.9
2017-07-04T02:44:18.703Z,89.1
2017-07-04T02:44:39.770Z,87.8
2017-07-04T02:45:00.098Z,88.6
2017-07-04T02:45:20.374Z,89
2017-07-04T02:45:40.699Z,88.9
2017-07-04T02:46:00.973Z,88.8
2017-07-04T02:46:21.291Z,89.2
2017-07-04T02:46:41.704Z,89.3
2017-07-04T02:47:02.024Z,89.4
2017-07-04T02:47:22.330Z,89.3
2017-07-04T02:47:42.651Z,89
2017-07-04T02:48:02.957Z,89.2
2017-07-04T02:48:23.262Z,88.5
2017-07-04T02:48:43.587Z,88.6
2017-07-04T02:49:03.868Z,88.6
2017-07-04T02:49:24.187Z,87.9
2017-07-04T02:49:44.472Z,88.1
2017-07-04T02:50:04.802Z,87.8
2017-07-04T02:50:26.109Z,88.1
2017-07-04T02:50:47.223Z,88.3
2017-07-04T02:51:07.649Z,88.1
2017-07-04T02:51:27.982Z,88.3
2017-07-04T02:51:48.241Z,87.8
2017-07-04T02:52:08.564Z,87.9
2017-07-04T02:52:28.856Z,88.3
2017-07-04T02:52:50.222Z,88.5
2017-07-04T02:53:10.544Z,88.2
2017-07-04T02:53:30.828Z,88.1
2017-07-04T02:53:51.247Z,88.6
2017-07-04T02:54:12.173Z,88.5
2017-07-04T02:54:32.441Z,88.1
2017-07-04T02:54:52.765Z,87.7
2017-07-04T02:55:13.112Z,87.6
2017-07-04T02:55:33.414Z,87.5
2017-07-04T02:55:54.264Z,87.7
2017-07-04T02:56:14.611Z,87.4
2017-07-04T02:56:34.981Z,87.7
2017-07-04T02:56:55.266Z,87.6
2017-07-04T02:57:15.578Z,88.1
2017-07-04T02:57:35.838Z,87.8
2017-07-04T02:57:56.155Z,87.7
2017-07-04T02:58:16.511Z,87.7
2017-07-04T02:58:36.873Z,87.9
2017-07-04T02:58:57.158Z,87.5
2017-07-04T02:59:17.422Z,87.1
2017-07-04T02:59:37.697Z,87.3
2017-07-04T02:59:57.981Z,87.6
2017-07-04T03:00:18.264Z,87.5
2017-07-04T03:00:39.661Z,87.8
2017-07-04T03:01:00.013Z,87.5
2017-07-04T03:01:20.046Z,87.7
2017-07-04T03:01:40.376Z,87.5
2017-07-04T03:02:01.768Z,87.1
2017-07-04T03:02:22.133Z,87
2017-07-04T03:02:42.441Z,87.1
2017-07-04T03:03:02.799Z,87.2
2017-07-04T03:03:23.080Z,87.1
2017-07-04T03:03:44.225Z,87.3
2017-07-04T03:04:04.531Z,87.1
2017-07-04T03:04:24.852Z,87.1
2017-07-04T03:04:45.119Z,87.1
2017-07-04T03:05:05.421Z,87.5
2017-07-04T03:05:25.787Z,87.5
2017-07-04T03:05:45.780Z,87.1
2017-07-04T03:06:06.094Z,86.3
2017-07-04T03:06:26.403Z,86.3
2017-07-04T03:06:47.227Z,87
2017-07-04T03:07:08.238Z,87.4
2017-07-04T03:07:28.566Z,87.2
2017-07-04T03:07:48.961Z,88.3
2017-07-04T03:08:10.237Z,87.9
2017-07-04T03:08:30.601Z,88.3
2017-07-04T03:08:50.636Z,87.7
2017-07-04T03:09:11.787Z,87.6
2017-07-04T03:09:32.143Z,87.7
2017-07-04T03:09:52.541Z,87.6
2017-07-04T03:10:12.814Z,87.4
2017-07-04T03:10:33.136Z,87.7
2017-07-04T03:10:53.137Z,87.6
2017-07-04T03:11:14.733Z,87
2017-07-04T03:11:35.063Z,87.1
2017-07-04T03:11:55.369Z,86.7
2017-07-04T03:12:15.715Z,86.7
2017-07-04T03:12:35.989Z,86.8
2017-07-04T03:12:56.303Z,85.8
2017-07-04T03:13:16.624Z,86.2
2017-07-04T03:13:36.930Z,86
2017-07-04T03:13:57.232Z,85.9
2017-07-04T03:14:17.631Z,86.5
2017-07-04T03:14:37.991Z,85.8
2017-07-04T03:14:58.316Z,87.4
2017-07-04T03:15:19.315Z,87.7
2017-07-04T03:15:40.197Z,87.3
2017-07-04T03:16:00.602Z,86.7
2017-07-04T03:16:20.911Z,86.5
2017-07-04T03:16:42.736Z,86.2
2017-07-04T03:17:03.140Z,86.5
2017-07-04T03:17:23.407Z,86.2
2017-07-04T03:17:44.816Z,85.4
2017-07-04T03:18:06.443Z,86.3
2017-07-04T03:18:26.852Z,85.3
2017-07-04T03:18:47.531Z,85.4
2017-07-04T03:19:07.987Z,85.6
2017-07-04T03:19:29.240Z,85.5
2017-07-04T03:19:49.594Z,85.6
2017-07-04T03:20:09.911Z,85.6
2017-07-04T03:20:30.331Z,85.2
2017-07-04T03:20:51.228Z,84.9
2017-07-04T03:21:11.538Z,83.8
2017-07-04T03:21:32.739Z,84.9
2017-07-04T03:21:53.742Z,84.6
2017-07-04T03:22:14.150Z,83.5
2017-07-04T03:22:34.543Z,83.4
2017-07-04T03:22:54.929Z,83.5
2017-07-04T03:23:15.301Z,82.8
2017-07-04T03:23:36.154Z,83.6
2017-07-04T03:23:56.499Z,83.4
2017-07-04T03:24:16.799Z,83.2
2017-07-04T03:24:37.584Z,83.6
2017-07-04T03:24:57.895Z,83.7
2017-07-04T03:25:18.174Z,83.6
2017-07-04T03:25:38.523Z,83.9
2017-07-04T03:25:58.881Z,83.4
2017-07-04T03:26:19.177Z,83.8
2017-07-04T03:26:39.539Z,82.8
2017-07-04T03:27:00.699Z,82.7
2017-07-04T03:27:20.700Z,81.8
2017-07-04T03:27:41.064Z,82.2
2017-07-04T03:28:01.388Z,81.3
2017-07-04T03:28:21.693Z,81.5
2017-07-04T03:28:42.056Z,81.3
2017-07-04T03:29:03.746Z,81.8
2017-07-04T03:29:25.447Z,81.4
2017-07-04T03:29:45.714Z,81.8
2017-07-04T03:30:06.024Z,82
2017-07-04T03:30:26.372Z,82
2017-07-04T03:30:46.769Z,82.1
2017-07-04T03:31:07.114Z,82.1
2017-07-04T03:31:27.483Z,81.8
2017-07-04T03:31:48.789Z,81.4
2017-07-04T03:32:10.248Z,81.4
2017-07-04T03:32:30.575Z,81.1
2017-07-04T03:32:50.892Z,81.3
2017-07-04T03:33:13.250Z,80.9
2017-07-04T03:33:33.609Z,81.1
2017-07-04T03:33:54.026Z,80.5
2017-07-04T03:34:15.138Z,80.6
2017-07-04T03:34:35.426Z,81.4
2017-07-04T03:34:56.686Z,81.2
2017-07-04T03:35:17.040Z,80.9
2017-07-04T03:35:37.409Z,81.1
2017-07-04T03:35:57.499Z,80.6
2017-07-04T03:36:18.339Z,79.6
2017-07-04T03:36:39.186Z,80
2017-07-04T03:37:00.312Z,80.5
2017-07-04T03:37:20.588Z,80.8
2017-07-04T03:37:42.305Z,81.2
2017-07-04T03:38:03.250Z,80.7
2017-07-04T03:38:23.605Z,80.5
2017-07-04T03:38:43.889Z,80.7
2017-07-04T03:39:04.162Z,80.5
2017-07-04T03:39:25.086Z,80.7
2017-07-04T03:39:46.223Z,80.7
2017-07-04T03:40:08.260Z,80.9
2017-07-04T03:40:28.630Z,80.6
2017-07-04T03:40:49.019Z,80.6
2017-07-04T03:41:09.328Z,80.8
2017-07-04T03:41:29.392Z,81
2017-07-04T03:41:50.180Z,80
2017-07-04T03:42:10.481Z,80
2017-07-04T03:42:31.717Z,80.5
2017-07-04T03:42:51.981Z,80.8
2017-07-04T03:43:13.181Z,80.7
2017-07-04T03:43:33.532Z,80.6
2017-07-04T03:43:53.889Z,80.4
2017-07-04T03:44:14.808Z,80.9
2017-07-04T03:44:35.710Z,79.9
2017-07-04T03:44:56.759Z,79.9
2017-07-04T03:45:17.306Z,79.8
2017-07-04T03:45:38.253Z,79.8
2017-07-04T03:45:58.615Z,80.3
2017-07-04T03:46:19.735Z,79.9
2017-07-04T03:46:40.753Z,80.3
2017-07-04T03:47:01.720Z,80.3
2017-07-04T03:47:21.991Z,80
2017-07-04T03:47:43.305Z,80
2017-07-04T03:48:04.754Z,80.1
2017-07-04T03:48:25.118Z,79.7
2017-07-04T03:48:45.433Z,79.5
2017-07-04T03:49:05.795Z,80
2017-07-04T03:49:26.850Z,79.8
2017-07-04T03:49:47.710Z,80.4
2017-07-04T03:50:08.030Z,79.7
2017-07-04T03:50:28.306Z,80.2
2017-07-04T03:50:49.707Z,80.2
2017-07-04T03:51:10.772Z,80.5
2017-07-04T03:51:31.169Z,80.6
2017-07-04T03:51:52.200Z,80.7
2017-07-04T03:52:12.518Z,81.3
2017-07-04T03:52:33.767Z,81
2017-07-04T03:52:54.093Z,80.2
2017-07-04T03:53:15.306Z,79.6
2017-07-04T03:53:35.631Z,79.6
2017-07-04T03:53:55.915Z,79
2017-07-04T03:54:16.235Z,78.9
2017-07-04T03:54:36.517Z,79.9
2017-07-04T03:54:58.327Z,79.9
2017-07-04T03:55:18.601Z,80.8
2017-07-04T03:55:38.909Z,80.6
2017-07-04T03:55:59.814Z,79.5
2017-07-04T03:56:20.849Z,79.2
2017-07-04T03:56:41.958Z,79.4
2017-07-04T03:57:02.271Z,79.9
2017-07-04T03:57:22.542Z,80.1
2017-07-04T03:57:42.806Z,80.3
2017-07-04T03:58:04.201Z,80
2017-07-04T03:58:24.467Z,80.3
2017-07-04T03:58:44.767Z,80
2017-07-04T03:59:06.217Z,80
2017-07-04T03:59:26.536Z,79.7
2017-07-04T03:59:46.850Z,80.4
2017-07-04T04:00:07.679Z,80
2017-07-04T04:00:27.989Z,80.9
2017-07-04T04:00:49.255Z,81.5
2017-07-04T04:01:10.769Z,81
2017-07-04T04:01:31.163Z,81.7
2017-07-04T04:01:51.447Z,82.3
2017-07-04T04:02:11.755Z,81.8
2017-07-04T04:02:32.034Z,82.4
2017-07-04T04:02:52.308Z,82.4
2017-07-04T04:03:12.666Z,82.6
2017-07-04T04:03:33.065Z,82.5
2017-07-04T04:03:53.122Z,82.3
2017-07-04T04:04:14.361Z,83.8
2017-07-04T04:04:34.684Z,83.9
2017-07-04T04:04:55.739Z,84
2017-07-04T04:05:15.772Z,84.1
2017-07-04T04:05:35.844Z,83.8
2017-07-04T04:05:56.231Z,83.7
2017-07-04T04:06:16.551Z,83.3
2017-07-04T04:06:37.333Z,83.9
2017-07-04T04:06:57.671Z,83.8
2017-07-04T04:07:18.772Z,83.8
2017-07-04T04:07:39.167Z,84.3
2017-07-04T04:08:00.295Z,84.5
2017-07-04T04:08:20.618Z,84.5
2017-07-04T04:08:41.850Z,84.3
2017-07-04T04:09:02.124Z,84.6
2017-07-04T04:09:23.310Z,84.5
2017-07-04T04:09:43.663Z,85.4
2017-07-04T04:10:04.651Z,85.4
2017-07-04T04:10:26.280Z,85.4
2017-07-04T04:10:47.258Z,86.2
2017-07-04T04:11:07.574Z,86.3
2017-07-04T04:11:28.807Z,86.7
2017-07-04T04:11:49.076Z,85.8
2017-07-04T04:12:09.394Z,86.4
2017-07-04T04:12:29.746Z,86.4
2017-07-04T04:12:50.610Z,86.5
2017-07-04T04:13:10.886Z,86.3
2017-07-04T04:13:31.776Z,86.1
2017-07-04T04:13:52.105Z,86.2
2017-07-04T04:14:12.469Z,86.2
2017-07-04T04:14:32.729Z,87.3
2017-07-04T04:14:53.044Z,87.5
2017-07-04T04:15:13.367Z,87.1
2017-07-04T04:15:33.656Z,87.5
2017-07-04T04:15:53.936Z,87.2
2017-07-04T04:16:14.279Z,86.5
2017-07-04T04:16:34.599Z,87.1
2017-07-04T04:16:56.380Z,87.4
2017-07-04T04:17:16.719Z,87.1
2017-07-04T04:17:37.062Z,86.8
2017-07-04T04:17:57.336Z,86.5
2017-07-04T04:18:17.626Z,87.4
2017-07-04T04:18:37.976Z,87.2
2017-07-04T04:18:58.324Z,87.4
2017-07-04T04:19:18.677Z,87.5
2017-07-04T04:19:38.961Z,87.5
2017-07-04T04:19:59.971Z,87.3
2017-07-04T04:20:20.291Z,87.3
2017-07-04T04:20:40.575Z,87.9
2017-07-04T04:21:00.926Z,88.5
2017-07-04T04:21:21.876Z,88
2017-07-04T04:21:42.164Z,87.8
2017-07-04T04:22:03.390Z,88.1
2017-07-04T04:22:23.674Z,87.8
2017-07-04T04:22:44.473Z,88
2017-07-04T04:23:04.834Z,87.6
2017-07-04T04:23:25.207Z,87.7
2017-07-04T04:23:45.576Z,87.8
2017-07-04T04:24:05.907Z,87.6
2017-07-04T04:24:26.201Z,87.7
2017-07-04T04:24:46.484Z,87.3
2017-07-04T04:25:06.816Z,87
2017-07-04T04:25:27.132Z,88.2
2017-07-04T04:25:48.858Z,88.3
2017-07-04T04:26:09.220Z,87.8
2017-07-04T04:26:30.445Z,88.3
2017-07-04T04:26:51.391Z,88.1
2017-07-04T04:27:11.745Z,87.5
2017-07-04T04:27:32.102Z,87.6
2017-07-04T04:27:52.924Z,87.4
2017-07-04T04:28:13.258Z,87.7
2017-07-04T04:28:33.537Z,88.3
2017-07-04T04:28:54.455Z,89.1
2017-07-04T04:29:14.788Z,88.2
2017-07-04T04:29:35.888Z,88.1
2017-07-04T04:29:56.892Z,87.9
2017-07-04T04:30:17.213Z,88
2017-07-04T04:30:37.523Z,87.9
2017-07-04T04:30:57.840Z,89
2017-07-04T04:31:18.155Z,89.6
2017-07-04T04:31:39.234Z,88.8
2017-07-04T04:31:59.602Z,88.5
2017-07-04T04:32:19.954Z,88.2
2017-07-04T04:32:40.352Z,88.5
2017-07-04T04:33:01.944Z,88.2
2017-07-04T04:33:22.289Z,88.9
2017-07-04T04:33:42.649Z,89.3
2017-07-04T04:34:02.972Z,89.6
2017-07-04T04:34:23.303Z,88.9
2017-07-04T04:34:43.625Z,89.2
2017-07-04T04:35:04.947Z,88.3
2017-07-04T04:35:25.893Z,88.7
2017-07-04T04:35:46.296Z,88.9
2017-07-04T04:36:06.604Z,88.9